KOVL

Olivia Regional Airport

Olivia, Minnesota, USA
METAR KOVL 190655Z AUTO 20004KT 10SM CLR 00/M02 A2970 RMK AO2
Observed Flight Rules
Jan-19 @ 06:55 UTC (24 minutes ago) Visual Flight Rules
Wind Visibility Clouds
200° at 4 knots 10 miles
  • Clear skies
Temperatures Readings
Current 0°C / 32°F
Dewpoint -2°C / 28°F
Humidity 87%
Altimeter 29.7" Hg
Pressure 1006 hPa
Elevation 328
METAR KOVL 190655Z AUTO 20004KT 10SM CLR 00/M02 A2970 RMK AO2
Observed Flight Rules
Jan-19 @ 06:55 UTC
(24 minutes ago)
VFR
Wind Visibility
200° at 4 knots 10 miles
Clouds
  • Clear skies
Temperature Dewpoint
0°C / 32°F -2°C / 28°F
Humidity Altimeter Pressure
87% 29.7" Hg 1006 hPa